sensor_id;sensor_type;location;lat;lon;timestamp;P1;P4;P2;P0;N10;N4;N25;N1;N05;TS
42106;SPS30;27764;50.278;19.032;2022-12-29T00:02:20;8;;8;;;;;;;
42106;SPS30;27764;50.278;19.032;2022-12-29T00:05:23;7;;7;;;;;;;
42106;SPS30;27764;50.278;19.032;2022-12-29T00:08:27;7;;7;;;;;;;
42106;SPS30;27764;50.278;19.032;2022-12-29T00:11:40;8;;8;;;;;;;
42106;SPS30;27764;50.278;19.032;2022-12-29T00:14:44;9;;9;;;;;;;
42106;SPS30;27764;50.278;19.032;2022-12-29T00:18:00;7;;7;;;;;;;
42106;SPS30;27764;50.278;19.032;2022-12-29T00:21:42;10;;10;;;;;;;
42106;SPS30;27764;50.278;19.032;2022-12-29T00:24:58;9;;9;;;;;;;
42106;SPS30;27764;50.278;19.032;2022-12-29T00:28:15;10;;10;;;;;;;
42106;SPS30;27764;50.278;19.032;2022-12-29T05:31:53;10;;10;;;;;;;
42106;SPS30;27764;50.278;19.032;2022-12-29T05:34:57;9;;9;;;;;;;
42106;SPS30;27764;50.278;19.032;2022-12-29T05:38:00;9;;9;;;;;;;
42106;SPS30;27764;50.278;19.032;2022-12-29T05:41:04;9;;9;;;;;;;
42106;SPS30;27764;50.278;19.032;2022-12-29T05:44:07;9;;9;;;;;;;
42106;SPS30;27764;50.278;19.032;2022-12-29T05:47:12;9;;9;;;;;;;
42106;SPS30;27764;50.278;19.032;2022-12-29T05:50:16;9;;9;;;;;;;
42106;SPS30;27764;50.278;19.032;2022-12-29T05:53:19;9;;9;;;;;;;
42106;SPS30;27764;50.278;19.032;2022-12-29T05:56:23;9;;9;;;;;;;
42106;SPS30;27764;50.278;19.032;2022-12-29T06:00:11;7;;7;;;;;;;
42106;SPS30;27764;50.278;19.032;2022-12-29T06:03:15;7;;7;;;;;;;
42106;SPS30;27764;50.278;19.032;2022-12-29T06:06:18;8;;8;;;;;;;
42106;SPS30;27764;50.278;19.032;2022-12-29T06:09:21;8;;8;;;;;;;
42106;SPS30;27764;50.278;19.032;2022-12-29T06:12:25;7;;7;;;;;;;
42106;SPS30;27764;50.278;19.032;2022-12-29T06:15:29;6;;6;;;;;;;
42106;SPS30;27764;50.278;19.032;2022-12-29T06:18:32;8;;8;;;;;;;
42106;SPS30;27764;50.278;19.032;2022-12-29T06:21:36;6;;6;;;;;;;
42106;SPS30;27764;50.278;19.032;2022-12-29T06:25:19;7;;7;;;;;;;
42106;SPS30;27764;50.278;19.032;2022-12-29T06:28:23;8;;8;;;;;;;
42106;SPS30;27764;50.278;19.032;2022-12-29T06:31:26;8;;8;;;;;;;
42106;SPS30;27764;50.278;19.032;2022-12-29T06:34:30;9;;9;;;;;;;
42106;SPS30;27764;50.278;19.032;2022-12-29T06:37:33;10;;10;;;;;;;
42106;SPS30;27764;50.278;19.032;2022-12-29T06:40:36;9;;9;;;;;;;
42106;SPS30;27764;50.278;19.032;2022-12-29T06:43:40;9;;9;;;;;;;
42106;SPS30;27764;50.278;19.032;2022-12-29T06:46:43;9;;9;;;;;;;
42106;SPS30;27764;50.278;19.032;2022-12-29T06:50:20;11;;11;;;;;;;
42106;SPS30;27764;50.278;19.032;2022-12-29T06:53:23;12;;12;;;;;;;
42106;SPS30;27764;50.278;19.032;2022-12-29T06:56:26;11;;10;;;;;;;
42106;SPS30;27764;50.278;19.032;2022-12-29T06:59:30;10;;10;;;;;;;
42106;SPS30;27764;50.278;19.032;2022-12-29T07:02:33;10;;10;;;;;;;
42106;SPS30;27764;50.278;19.032;2022-12-29T07:05:37;9;;9;;;;;;;
42106;SPS30;27764;50.278;19.032;2022-12-29T07:08:40;11;;10;;;;;;;
42106;SPS30;27764;50.278;19.032;2022-12-29T07:11:43;11;;11;;;;;;;
42106;SPS30;27764;50.278;19.032;2022-12-29T07:15:29;10;;10;;;;;;;
42106;SPS30;27764;50.278;19.032;2022-12-29T07:18:32;9;;9;;;;;;;
42106;SPS30;27764;50.278;19.032;2022-12-29T07:21:36;10;;10;;;;;;;
42106;SPS30;27764;50.278;19.032;2022-12-29T07:24:39;10;;10;;;;;;;
42106;SPS30;27764;50.278;19.032;2022-12-29T07:27:43;10;;10;;;;;;;
42106;SPS30;27764;50.278;19.032;2022-12-29T07:30:46;10;;10;;;;;;;
42106;SPS30;27764;50.278;19.032;2022-12-29T07:33:50;11;;11;;;;;;;
42106;SPS30;27764;50.278;19.032;2022-12-29T07:36:53;11;;11;;;;;;;
42106;SPS30;27764;50.278;19.032;2022-12-29T07:39:56;9;;9;;;;;;;
42106;SPS30;27764;50.278;19.032;2022-12-29T07:43:38;11;;11;;;;;;;
42106;SPS30;27764;50.278;19.032;2022-12-29T07:46:41;10;;9;;;;;;;
42106;SPS30;27764;50.278;19.032;2022-12-29T07:49:45;11;;11;;;;;;;
42106;SPS30;27764;50.278;19.032;2022-12-29T07:52:49;10;;10;;;;;;;
42106;SPS30;27764;50.278;19.032;2022-12-29T07:55:52;10;;10;;;;;;;
42106;SPS30;27764;50.278;19.032;2022-12-29T07:58:55;10;;10;;;;;;;
42106;SPS30;27764;50.278;19.032;2022-12-29T08:01:59;8;;8;;;;;;;
42106;SPS30;27764;50.278;19.032;2022-12-29T08:05:47;9;;9;;;;;;;
42106;SPS30;27764;50.278;19.032;2022-12-29T08:08:51;8;;8;;;;;;;
42106;SPS30;27764;50.278;19.032;2022-12-29T08:11:54;10;;10;;;;;;;
42106;SPS30;27764;50.278;19.032;2022-12-29T08:14:58;11;;11;;;;;;;
42106;SPS30;27764;50.278;19.032;2022-12-29T08:18:02;9;;9;;;;;;;
42106;SPS30;27764;50.278;19.032;2022-12-29T08:21:06;10;;10;;;;;;;
42106;SPS30;27764;50.278;19.032;2022-12-29T08:24:09;11;;11;;;;;;;
42106;SPS30;27764;50.278;19.032;2022-12-29T08:27:13;11;;11;;;;;;;
42106;SPS30;27764;50.278;19.032;2022-12-29T08:30:59;11;;11;;;;;;;
42106;SPS30;27764;50.278;19.032;2022-12-29T08:34:04;11;;11;;;;;;;
42106;SPS30;27764;50.278;19.032;2022-12-29T08:37:08;12;;12;;;;;;;
42106;SPS30;27764;50.278;19.032;2022-12-29T08:40:12;12;;12;;;;;;;
42106;SPS30;27764;50.278;19.032;2022-12-29T08:43:16;11;;11;;;;;;;
42106;SPS30;27764;50.278;19.032;2022-12-29T08:46:20;10;;10;;;;;;;
42106;SPS30;27764;50.278;19.032;2022-12-29T08:49:24;12;;12;;;;;;;
42106;SPS30;27764;50.278;19.032;2022-12-29T08:53:16;12;;12;;;;;;;
42106;SPS30;27764;50.278;19.032;2022-12-29T08:56:21;11;;11;;;;;;;
42106;SPS30;27764;50.278;19.032;2022-12-29T08:59:26;12;;12;;;;;;;
42106;SPS30;27764;50.278;19.032;2022-12-29T09:02:29;13;;13;;;;;;;
42106;SPS30;27764;50.278;19.032;2022-12-29T09:05:33;13;;13;;;;;;;
42106;SPS30;27764;50.278;19.032;2022-12-29T09:08:37;11;;11;;;;;;;
42106;SPS30;27764;50.278;19.032;2022-12-29T09:11:41;11;;11;;;;;;;
42106;SPS30;27764;50.278;19.032;2022-12-29T09:14:46;13;;13;;;;;;;
42106;SPS30;27764;50.278;19.032;2022-12-29T09:18:25;13;;13;;;;;;;
42106;SPS30;27764;50.278;19.032;2022-12-29T09:21:29;13;;13;;;;;;;
42106;SPS30;27764;50.278;19.032;2022-12-29T09:24:32;12;;12;;;;;;;
42106;SPS30;27764;50.278;19.032;2022-12-29T09:27:36;12;;12;;;;;;;
42106;SPS30;27764;50.278;19.032;2022-12-29T09:30:41;12;;12;;;;;;;
42106;SPS30;27764;50.278;19.032;2022-12-29T09:33:45;12;;12;;;;;;;
42106;SPS30;27764;50.278;19.032;2022-12-29T09:36:49;12;;12;;;;;;;
42106;SPS30;27764;50.278;19.032;2022-12-29T09:39:53;12;;12;;;;;;;
42106;SPS30;27764;50.278;19.032;2022-12-29T09:46:50;12;;12;;;;;;;
42106;SPS30;27764;50.278;19.032;2022-12-29T09:53:15;11;;11;;;;;;;
42106;SPS30;27764;50.278;19.032;2022-12-29T09:56:26;11;;11;;;;;;;
42106;SPS30;27764;50.278;19.032;2022-12-29T09:59:50;11;;11;;;;;;;
42106;SPS30;27764;50.278;19.032;2022-12-29T10:02:45;10;;10;;;;;;;
42106;SPS30;27764;50.278;19.032;2022-12-29T10:26:42;10;;10;;;;;;;
42106;SPS30;27764;50.278;19.032;2022-12-29T10:32:58;13;;13;;;;;;;
42106;SPS30;27764;50.278;19.032;2022-12-29T10:43:24;13;;13;;;;;;;
42106;SPS30;27764;50.278;19.032;2022-12-29T10:46:32;12;;12;;;;;;;
42106;SPS30;27764;50.278;19.032;2022-12-29T10:49:40;12;;12;;;;;;;
42106;SPS30;27764;50.278;19.032;2022-12-29T10:52:45;13;;13;;;;;;;
42106;SPS30;27764;50.278;19.032;2022-12-29T10:55:50;12;;12;;;;;;;
42106;SPS30;27764;50.278;19.032;2022-12-29T10:59:38;12;;12;;;;;;;
42106;SPS30;27764;50.278;19.032;2022-12-29T11:12:30;10;;10;;;;;;;
42106;SPS30;27764;50.278;19.032;2022-12-29T11:15:52;10;;10;;;;;;;
42106;SPS30;27764;50.278;19.032;2022-12-29T11:19:22;10;;10;;;;;;;
42106;SPS30;27764;50.278;19.032;2022-12-29T11:22:28;9;;9;;;;;;;
42106;SPS30;27764;50.278;19.032;2022-12-29T11:25:31;10;;10;;;;;;;
42106;SPS30;27764;50.278;19.032;2022-12-29T11:28:39;10;;10;;;;;;;
42106;SPS30;27764;50.278;19.032;2022-12-29T11:31:44;10;;10;;;;;;;
42106;SPS30;27764;50.278;19.032;2022-12-29T11:34:50;10;;10;;;;;;;
42106;SPS30;27764;50.278;19.032;2022-12-29T11:37:55;12;;12;;;;;;;
42106;SPS30;27764;50.278;19.032;2022-12-29T11:41:38;12;;12;;;;;;;
42106;SPS30;27764;50.278;19.032;2022-12-29T11:48:05;11;;11;;;;;;;
42106;SPS30;27764;50.278;19.032;2022-12-29T11:51:06;13;;13;;;;;;;
42106;SPS30;27764;50.278;19.032;2022-12-29T11:54:16;13;;13;;;;;;;
42106;SPS30;27764;50.278;19.032;2022-12-29T11:57:24;12;;12;;;;;;;
42106;SPS30;27764;50.278;19.032;2022-12-29T12:01:14;14;;14;;;;;;;
42106;SPS30;27764;50.278;19.032;2022-12-29T12:04:28;14;;14;;;;;;;
42106;SPS30;27764;50.278;19.032;2022-12-29T12:14:05;12;;12;;;;;;;
42106;SPS30;27764;50.278;19.032;2022-12-29T12:17:54;10;;10;;;;;;;
42106;SPS30;27764;50.278;19.032;2022-12-29T12:21:12;12;;12;;;;;;;
42106;SPS30;27764;50.278;19.032;2022-12-29T12:30:54;10;;10;;;;;;;
42106;SPS30;27764;50.278;19.032;2022-12-29T12:34:41;11;;11;;;;;;;
42106;SPS30;27764;50.278;19.032;2022-12-29T12:41:06;10;;10;;;;;;;
42106;SPS30;27764;50.278;19.032;2022-12-29T12:44:24;12;;12;;;;;;;
42106;SPS30;27764;50.278;19.032;2022-12-29T12:47:36;11;;11;;;;;;;
42106;SPS30;27764;50.278;19.032;2022-12-29T13:11:51;13;;13;;;;;;;
42106;SPS30;27764;50.278;19.032;2022-12-29T13:18:22;13;;13;;;;;;;
42106;SPS30;27764;50.278;19.032;2022-12-29T13:29:02;12;;12;;;;;;;
42106;SPS30;27764;50.278;19.032;2022-12-29T13:42:30;12;;12;;;;;;;
42106;SPS30;27764;50.278;19.032;2022-12-29T13:45:35;16;;16;;;;;;;
42106;SPS30;27764;50.278;19.032;2022-12-29T13:48:41;13;;13;;;;;;;
42106;SPS30;27764;50.278;19.032;2022-12-29T13:51:56;12;;12;;;;;;;
42106;SPS30;27764;50.278;19.032;2022-12-29T14:02:11;16;;16;;;;;;;
42106;SPS30;27764;50.278;19.032;2022-12-29T14:05:27;14;;14;;;;;;;
42106;SPS30;27764;50.278;19.032;2022-12-29T14:08:33;13;;13;;;;;;;
42106;SPS30;27764;50.278;19.032;2022-12-29T14:11:39;15;;15;;;;;;;
42106;SPS30;27764;50.278;19.032;2022-12-29T14:14:43;14;;14;;;;;;;
42106;SPS30;27764;50.278;19.032;2022-12-29T14:18:19;15;;15;;;;;;;
42106;SPS30;27764;50.278;19.032;2022-12-29T14:21:26;15;;15;;;;;;;
42106;SPS30;27764;50.278;19.032;2022-12-29T14:27:44;13;;13;;;;;;;
42106;SPS30;27764;50.278;19.032;2022-12-29T14:30:54;13;;13;;;;;;;
42106;SPS30;27764;50.278;19.032;2022-12-29T14:44:28;12;;12;;;;;;;
42106;SPS30;27764;50.278;19.032;2022-12-29T14:50:44;14;;14;;;;;;;
42106;SPS30;27764;50.278;19.032;2022-12-29T14:53:49;12;;12;;;;;;;
42106;SPS30;27764;50.278;19.032;2022-12-29T14:57:35;12;;12;;;;;;;
42106;SPS30;27764;50.278;19.032;2022-12-29T15:00:42;11;;11;;;;;;;
42106;SPS30;27764;50.278;19.032;2022-12-29T15:03:51;13;;13;;;;;;;
42106;SPS30;27764;50.278;19.032;2022-12-29T15:06:59;15;;15;;;;;;;
42106;SPS30;27764;50.278;19.032;2022-12-29T15:10:07;15;;15;;;;;;;
42106;SPS30;27764;50.278;19.032;2022-12-29T15:13:21;16;;16;;;;;;;
42106;SPS30;27764;50.278;19.032;2022-12-29T15:17:12;15;;15;;;;;;;
42106;SPS30;27764;50.278;19.032;2022-12-29T15:20:25;13;;13;;;;;;;
42106;SPS30;27764;50.278;19.032;2022-12-29T15:23:34;15;;15;;;;;;;
42106;SPS30;27764;50.278;19.032;2022-12-29T15:26:42;16;;16;;;;;;;
42106;SPS30;27764;50.278;19.032;2022-12-29T15:29:55;14;;14;;;;;;;
42106;SPS30;27764;50.278;19.032;2022-12-29T15:33:16;14;;14;;;;;;;
42106;SPS30;27764;50.278;19.032;2022-12-29T15:36:49;13;;13;;;;;;;
42106;SPS30;27764;50.278;19.032;2022-12-29T15:39:54;15;;15;;;;;;;
42106;SPS30;27764;50.278;19.032;2022-12-29T15:46:14;16;;16;;;;;;;
42106;SPS30;27764;50.278;19.032;2022-12-29T15:49:18;17;;17;;;;;;;
42106;SPS30;27764;50.278;19.032;2022-12-29T15:52:23;16;;16;;;;;;;
42106;SPS30;27764;50.278;19.032;2022-12-29T15:56:14;17;;17;;;;;;;
42106;SPS30;27764;50.278;19.032;2022-12-29T16:02:30;15;;15;;;;;;;
42106;SPS30;27764;50.278;19.032;2022-12-29T16:05:35;16;;16;;;;;;;
42106;SPS30;27764;50.278;19.032;2022-12-29T16:08:39;16;;16;;;;;;;
42106;SPS30;27764;50.278;19.032;2022-12-29T16:15:46;18;;18;;;;;;;
42106;SPS30;27764;50.278;19.032;2022-12-29T16:18:51;16;;16;;;;;;;
42106;SPS30;27764;50.278;19.032;2022-12-29T16:21:56;18;;18;;;;;;;
42106;SPS30;27764;50.278;19.032;2022-12-29T16:25:03;18;;18;;;;;;;
42106;SPS30;27764;50.278;19.032;2022-12-29T16:38:33;18;;18;;;;;;;
42106;SPS30;27764;50.278;19.032;2022-12-29T16:41:37;19;;19;;;;;;;
42106;SPS30;27764;50.278;19.032;2022-12-29T16:44:40;16;;16;;;;;;;
42106;SPS30;27764;50.278;19.032;2022-12-29T16:47:45;17;;17;;;;;;;
42106;SPS30;27764;50.278;19.032;2022-12-29T16:51:03;16;;16;;;;;;;
42106;SPS30;27764;50.278;19.032;2022-12-29T16:54:13;16;;16;;;;;;;
42106;SPS30;27764;50.278;19.032;2022-12-29T16:58:11;15;;15;;;;;;;
42106;SPS30;27764;50.278;19.032;2022-12-29T17:01:20;16;;16;;;;;;;
42106;SPS30;27764;50.278;19.032;2022-12-29T17:04:24;17;;17;;;;;;;
42106;SPS30;27764;50.278;19.032;2022-12-29T17:07:27;16;;16;;;;;;;
42106;SPS30;27764;50.278;19.032;2022-12-29T17:10:32;15;;15;;;;;;;
42106;SPS30;27764;50.278;19.032;2022-12-29T17:13:48;16;;16;;;;;;;
42106;SPS30;27764;50.278;19.032;2022-12-29T17:16:52;15;;15;;;;;;;
42106;SPS30;27764;50.278;19.032;2022-12-29T17:20:38;15;;14;;;;;;;
42106;SPS30;27764;50.278;19.032;2022-12-29T17:23:41;15;;15;;;;;;;
42106;SPS30;27764;50.278;19.032;2022-12-29T17:26:45;21;;21;;;;;;;
42106;SPS30;27764;50.278;19.032;2022-12-29T17:29:54;17;;17;;;;;;;
42106;SPS30;27764;50.278;19.032;2022-12-29T17:33:04;21;;21;;;;;;;
42106;SPS30;27764;50.278;19.032;2022-12-29T17:36:13;23;;23;;;;;;;
42106;SPS30;27764;50.278;19.032;2022-12-29T17:40:00;21;;21;;;;;;;
42106;SPS30;27764;50.278;19.032;2022-12-29T17:43:07;24;;24;;;;;;;
42106;SPS30;27764;50.278;19.032;2022-12-29T17:46:15;24;;24;;;;;;;
42106;SPS30;27764;50.278;19.032;2022-12-29T17:49:18;25;;25;;;;;;;
42106;SPS30;27764;50.278;19.032;2022-12-29T17:52:22;25;;25;;;;;;;
42106;SPS30;27764;50.278;19.032;2022-12-29T17:55:25;22;;22;;;;;;;
42106;SPS30;27764;50.278;19.032;2022-12-29T17:58:29;22;;22;;;;;;;
42106;SPS30;27764;50.278;19.032;2022-12-29T18:01:34;21;;21;;;;;;;
42106;SPS30;27764;50.278;19.032;2022-12-29T18:05:25;22;;22;;;;;;;
42106;SPS30;27764;50.278;19.032;2022-12-29T18:08:30;21;;21;;;;;;;
42106;SPS30;27764;50.278;19.032;2022-12-29T18:11:39;23;;23;;;;;;;
42106;SPS30;27764;50.278;19.032;2022-12-29T18:14:45;22;;22;;;;;;;
42106;SPS30;27764;50.278;19.032;2022-12-29T18:17:48;24;;24;;;;;;;
42106;SPS30;27764;50.278;19.032;2022-12-29T18:20:58;24;;24;;;;;;;
42106;SPS30;27764;50.278;19.032;2022-12-29T18:24:02;20;;20;;;;;;;
42106;SPS30;27764;50.278;19.032;2022-12-29T18:27:46;19;;19;;;;;;;
42106;SPS30;27764;50.278;19.032;2022-12-29T18:30:50;22;;22;;;;;;;
42106;SPS30;27764;50.278;19.032;2022-12-29T18:33:55;22;;22;;;;;;;
42106;SPS30;27764;50.278;19.032;2022-12-29T18:37:00;24;;24;;;;;;;
42106;SPS30;27764;50.278;19.032;2022-12-29T18:40:05;22;;22;;;;;;;
42106;SPS30;27764;50.278;19.032;2022-12-29T18:43:13;21;;21;;;;;;;
42106;SPS30;27764;50.278;19.032;2022-12-29T18:46:17;22;;22;;;;;;;
42106;SPS30;27764;50.278;19.032;2022-12-29T18:50:00;24;;24;;;;;;;
42106;SPS30;27764;50.278;19.032;2022-12-29T18:53:04;21;;21;;;;;;;
42106;SPS30;27764;50.278;19.032;2022-12-29T18:57:06;19;;19;;;;;;;
42106;SPS30;27764;50.278;19.032;2022-12-29T19:00:10;21;;21;;;;;;;
42106;SPS30;27764;50.278;19.032;2022-12-29T19:03:16;17;;17;;;;;;;
42106;SPS30;27764;50.278;19.032;2022-12-29T19:06:20;21;;21;;;;;;;
42106;SPS30;27764;50.278;19.032;2022-12-29T19:09:24;19;;19;;;;;;;
42106;SPS30;27764;50.278;19.032;2022-12-29T19:12:29;16;;16;;;;;;;
42106;SPS30;27764;50.278;19.032;2022-12-29T19:16:16;18;;18;;;;;;;
42106;SPS30;27764;50.278;19.032;2022-12-29T19:19:22;19;;19;;;;;;;
42106;SPS30;27764;50.278;19.032;2022-12-29T19:22:26;18;;18;;;;;;;
42106;SPS30;27764;50.278;19.032;2022-12-29T19:25:29;18;;18;;;;;;;
42106;SPS30;27764;50.278;19.032;2022-12-29T19:28:33;15;;15;;;;;;;
42106;SPS30;27764;50.278;19.032;2022-12-29T19:31:36;19;;19;;;;;;;
42106;SPS30;27764;50.278;19.032;2022-12-29T19:34:41;17;;17;;;;;;;
42106;SPS30;27764;50.278;19.032;2022-12-29T19:38:27;18;;18;;;;;;;
42106;SPS30;27764;50.278;19.032;2022-12-29T19:41:31;20;;20;;;;;;;
42106;SPS30;27764;50.278;19.032;2022-12-29T19:44:34;21;;21;;;;;;;
42106;SPS30;27764;50.278;19.032;2022-12-29T19:47:39;22;;22;;;;;;;
42106;SPS30;27764;50.278;19.032;2022-12-29T19:50:43;19;;19;;;;;;;
42106;SPS30;27764;50.278;19.032;2022-12-29T19:53:46;20;;19;;;;;;;
42106;SPS30;27764;50.278;19.032;2022-12-29T19:56:50;20;;20;;;;;;;
42106;SPS30;27764;50.278;19.032;2022-12-29T19:59:54;19;;19;;;;;;;
42106;SPS30;27764;50.278;19.032;2022-12-29T20:02:57;16;;16;;;;;;;
42106;SPS30;27764;50.278;19.032;2022-12-29T20:06:33;15;;15;;;;;;;
42106;SPS30;27764;50.278;19.032;2022-12-29T20:09:36;15;;15;;;;;;;
42106;SPS30;27764;50.278;19.032;2022-12-29T20:12:40;14;;14;;;;;;;
42106;SPS30;27764;50.278;19.032;2022-12-29T20:15:44;16;;16;;;;;;;
42106;SPS30;27764;50.278;19.032;2022-12-29T20:18:47;14;;14;;;;;;;
42106;SPS30;27764;50.278;19.032;2022-12-29T20:21:51;16;;16;;;;;;;
42106;SPS30;27764;50.278;19.032;2022-12-29T20:24:55;15;;15;;;;;;;
42106;SPS30;27764;50.278;19.032;2022-12-29T20:27:58;16;;16;;;;;;;
42106;SPS30;27764;50.278;19.032;2022-12-29T20:31:04;14;;14;;;;;;;
42106;SPS30;27764;50.278;19.032;2022-12-29T20:34:42;16;;16;;;;;;;
42106;SPS30;27764;50.278;19.032;2022-12-29T20:37:47;18;;18;;;;;;;
42106;SPS30;27764;50.278;19.032;2022-12-29T20:40:51;16;;16;;;;;;;
42106;SPS30;27764;50.278;19.032;2022-12-29T20:43:54;18;;18;;;;;;;
42106;SPS30;27764;50.278;19.032;2022-12-29T20:46:59;18;;18;;;;;;;
42106;SPS30;27764;50.278;19.032;2022-12-29T20:50:02;20;;20;;;;;;;
42106;SPS30;27764;50.278;19.032;2022-12-29T20:53:06;19;;19;;;;;;;
42106;SPS30;27764;50.278;19.032;2022-12-29T20:56:55;18;;18;;;;;;;
42106;SPS30;27764;50.278;19.032;2022-12-29T20:59:59;19;;19;;;;;;;
42106;SPS30;27764;50.278;19.032;2022-12-29T21:03:03;17;;17;;;;;;;
42106;SPS30;27764;50.278;19.032;2022-12-29T21:06:06;20;;20;;;;;;;
42106;SPS30;27764;50.278;19.032;2022-12-29T21:09:10;18;;18;;;;;;;
42106;SPS30;27764;50.278;19.032;2022-12-29T21:12:14;17;;17;;;;;;;
42106;SPS30;27764;50.278;19.032;2022-12-29T21:15:17;15;;15;;;;;;;
42106;SPS30;27764;50.278;19.032;2022-12-29T21:19:04;17;;17;;;;;;;
42106;SPS30;27764;50.278;19.032;2022-12-29T21:22:08;15;;15;;;;;;;
42106;SPS30;27764;50.278;19.032;2022-12-29T21:25:11;17;;16;;;;;;;
42106;SPS30;27764;50.278;19.032;2022-12-29T21:28:15;16;;16;;;;;;;
42106;SPS30;27764;50.278;19.032;2022-12-29T21:31:22;15;;15;;;;;;;
42106;SPS30;27764;50.278;19.032;2022-12-29T21:34:28;16;;16;;;;;;;
42106;SPS30;27764;50.278;19.032;2022-12-29T21:37:32;15;;15;;;;;;;
42106;SPS30;27764;50.278;19.032;2022-12-29T21:40:36;15;;15;;;;;;;
42106;SPS30;27764;50.278;19.032;2022-12-29T21:44:16;15;;15;;;;;;;
42106;SPS30;27764;50.278;19.032;2022-12-29T21:47:33;16;;16;;;;;;;
42106;SPS30;27764;50.278;19.032;2022-12-29T21:50:53;15;;15;;;;;;;
42106;SPS30;27764;50.278;19.032;2022-12-29T21:54:10;17;;17;;;;;;;
42106;SPS30;27764;50.278;19.032;2022-12-29T21:58:12;16;;16;;;;;;;
42106;SPS30;27764;50.278;19.032;2022-12-29T22:01:28;18;;18;;;;;;;
42106;SPS30;27764;50.278;19.032;2022-12-29T22:04:46;18;;18;;;;;;;
42106;SPS30;27764;50.278;19.032;2022-12-29T22:08:01;18;;18;;;;;;;
42106;SPS30;27764;50.278;19.032;2022-12-29T22:11:17;17;;16;;;;;;;
42106;SPS30;27764;50.278;19.032;2022-12-29T22:15:10;17;;17;;;;;;;
42106;SPS30;27764;50.278;19.032;2022-12-29T22:18:14;18;;18;;;;;;;
42106;SPS30;27764;50.278;19.032;2022-12-29T22:21:17;16;;16;;;;;;;
42106;SPS30;27764;50.278;19.032;2022-12-29T22:24:21;13;;13;;;;;;;
42106;SPS30;27764;50.278;19.032;2022-12-29T22:27:24;16;;16;;;;;;;
42106;SPS30;27764;50.278;19.032;2022-12-29T22:30:28;16;;16;;;;;;;
42106;SPS30;27764;50.278;19.032;2022-12-29T22:33:31;16;;16;;;;;;;
42106;SPS30;27764;50.278;19.032;2022-12-29T22:36:35;17;;17;;;;;;;
42106;SPS30;27764;50.278;19.032;2022-12-29T22:40:09;16;;16;;;;;;;
42106;SPS30;27764;50.278;19.032;2022-12-29T22:43:13;16;;16;;;;;;;
42106;SPS30;27764;50.278;19.032;2022-12-29T22:46:17;16;;16;;;;;;;
42106;SPS30;27764;50.278;19.032;2022-12-29T22:49:21;15;;15;;;;;;;
42106;SPS30;27764;50.278;19.032;2022-12-29T22:52:24;15;;15;;;;;;;
42106;SPS30;27764;50.278;19.032;2022-12-29T22:55:28;17;;17;;;;;;;
42106;SPS30;27764;50.278;19.032;2022-12-29T22:58:31;16;;16;;;;;;;
42106;SPS30;27764;50.278;19.032;2022-12-29T23:02:21;16;;16;;;;;;;
42106;SPS30;27764;50.278;19.032;2022-12-29T23:05:25;17;;17;;;;;;;
42106;SPS30;27764;50.278;19.032;2022-12-29T23:08:30;14;;14;;;;;;;
42106;SPS30;27764;50.278;19.032;2022-12-29T23:11:36;15;;15;;;;;;;
42106;SPS30;27764;50.278;19.032;2022-12-29T23:14:39;16;;16;;;;;;;
42106;SPS30;27764;50.278;19.032;2022-12-29T23:17:42;14;;14;;;;;;;
42106;SPS30;27764;50.278;19.032;2022-12-29T23:20:49;14;;14;;;;;;;
42106;SPS30;27764;50.278;19.032;2022-12-29T23:24:26;17;;16;;;;;;;
42106;SPS30;27764;50.278;19.032;2022-12-29T23:27:30;13;;13;;;;;;;
42106;SPS30;27764;50.278;19.032;2022-12-29T23:30:33;16;;16;;;;;;;
42106;SPS30;27764;50.278;19.032;2022-12-29T23:33:37;17;;17;;;;;;;
42106;SPS30;27764;50.278;19.032;2022-12-29T23:36:41;14;;14;;;;;;;
42106;SPS30;27764;50.278;19.032;2022-12-29T23:39:45;14;;14;;;;;;;
42106;SPS30;27764;50.278;19.032;2022-12-29T23:42:48;14;;14;;;;;;;
42106;SPS30;27764;50.278;19.032;2022-12-29T23:46:41;16;;16;;;;;;;
42106;SPS30;27764;50.278;19.032;2022-12-29T23:49:45;14;;14;;;;;;;
42106;SPS30;27764;50.278;19.032;2022-12-29T23:52:48;15;;15;;;;;;;
42106;SPS30;27764;50.278;19.032;2022-12-29T23:55:53;16;;16;;;;;;;
42106;SPS30;27764;50.278;19.032;2022-12-29T23:58:58;15;;15;;;;;;;
